Pagina principale
METAR-TAF:

METAR-TAF

Aeroporti :

Xi'an, Cina

latitudine: 34-26N, longitudine: 108-45E, altezza: 479 m

Osservazione

Il bollettino è stato emesso 28 minuti fa, alle 01:00 UTC
Vento 8 kt da est/nord-est
Temperature 3°C
Umidità 48%
Pressione 1025 hPa
Visibilità: 8000 m

METAR: ZLXY 250100Z 06004MPS 8000 NSC 03/M07 Q1025 NOSIG

Ora: 09:28 (01:28 UTC)

Previsione

Il bollettino è stato emesso 6 ore e 20 minuti fa, alle 19:08 UTC
Previsione valida dal 25 alle 00 UTC al 25 alle 24 UTC
Vento 6 kt da est/nord-est
Visibilità: 3000 m
foschia

TAF: ZLXY 241908Z 2500/2524 06003MPS 3000 HZ NSC TX16/2508Z TN01/2523Z

Osservazioni e previsioni meteorologiche di più di 4000 aeroporti (messaggi METAR e TAF).

Le stazioni disponibili sono rappresentate dai dischi gialli e rossi sulla carta.

Puntare il mouse per vedere il nome della stazione.

Clicca sopra per visualizzare le osservazioni e previsioni meteorologiche.

Per cambiare la mappa : fare clic sui pulsanti verdi con una croce nera per ingrandire, il pulsante verde con un trattino per diminuire, o sulla freccia verde per le mappe adiacenti.


METAR-TAF: